sensor_id;sensor_type;location;lat;lon;timestamp;P1;durP1;ratioP1;P2;durP2;ratioP2
25207;SDS011;13153;52.316;21.166;2024-03-23T00:54:34;36.03;;;21.52;;
25207;SDS011;13153;52.316;21.166;2024-03-23T00:57:01;39.13;;;21.80;;
25207;SDS011;13153;52.316;21.166;2024-03-23T00:59:28;36.42;;;22.15;;
25207;SDS011;13153;52.316;21.166;2024-03-23T01:01:56;38.42;;;22.77;;
25207;SDS011;13153;52.316;21.166;2024-03-23T01:04:22;38.95;;;23.08;;
25207;SDS011;13153;52.316;21.166;2024-03-23T01:06:49;39.08;;;23.23;;
25207;SDS011;13153;52.316;21.166;2024-03-23T01:09:15;39.75;;;23.35;;
25207;SDS011;13153;52.316;21.166;2024-03-23T01:11:41;41.13;;;23.98;;
25207;SDS011;13153;52.316;21.166;2024-03-23T01:14:08;42.17;;;24.75;;
25207;SDS011;13153;52.316;21.166;2024-03-23T01:16:34;39.97;;;24.48;;
25207;SDS011;13153;52.316;21.166;2024-03-23T01:19:02;39.17;;;23.83;;
25207;SDS011;13153;52.316;21.166;2024-03-23T01:21:28;44.42;;;25.08;;
25207;SDS011;13153;52.316;21.166;2024-03-23T01:23:55;41.88;;;24.17;;
25207;SDS011;13153;52.316;21.166;2024-03-23T01:26:21;41.03;;;23.35;;
25207;SDS011;13153;52.316;21.166;2024-03-23T01:28:47;42.42;;;25.70;;
25207;SDS011;13153;52.316;21.166;2024-03-23T01:31:13;43.47;;;25.80;;
25207;SDS011;13153;52.316;21.166;2024-03-23T01:33:41;44.10;;;26.55;;
25207;SDS011;13153;52.316;21.166;2024-03-23T01:36:07;44.60;;;25.67;;
25207;SDS011;13153;52.316;21.166;2024-03-23T01:38:33;43.90;;;26.13;;
25207;SDS011;13153;52.316;21.166;2024-03-23T01:41:00;44.03;;;26.38;;
25207;SDS011;13153;52.316;21.166;2024-03-23T01:43:26;44.58;;;26.45;;
25207;SDS011;13153;52.316;21.166;2024-03-23T01:45:52;41.72;;;25.75;;
25207;SDS011;13153;52.316;21.166;2024-03-23T01:48:19;46.35;;;26.30;;
25207;SDS011;13153;52.316;21.166;2024-03-23T01:50:46;44.10;;;25.60;;
25207;SDS011;13153;52.316;21.166;2024-03-23T01:53:13;43.03;;;25.30;;
25207;SDS011;13153;52.316;21.166;2024-03-23T01:55:42;41.55;;;25.98;;
25207;SDS011;13153;52.316;21.166;2024-03-23T01:58:10;41.47;;;24.85;;
25207;SDS011;13153;52.316;21.166;2024-03-23T02:00:36;42.83;;;26.33;;
25207;SDS011;13153;52.316;21.166;2024-03-23T02:03:03;44.90;;;26.00;;
25207;SDS011;13153;52.316;21.166;2024-03-23T02:05:52;51.80;;;29.00;;
25207;SDS011;13153;52.316;21.166;2024-03-23T02:08:21;43.40;;;26.63;;
25207;SDS011;13153;52.316;21.166;2024-03-23T02:10:49;41.28;;;25.60;;
25207;SDS011;13153;52.316;21.166;2024-03-23T02:13:16;42.30;;;25.77;;
25207;SDS011;13153;52.316;21.166;2024-03-23T02:15:43;44.47;;;27.40;;
25207;SDS011;13153;52.316;21.166;2024-03-23T02:18:10;53.28;;;30.20;;
25207;SDS011;13153;52.316;21.166;2024-03-23T02:20:36;46.70;;;26.63;;
25207;SDS011;13153;52.316;21.166;2024-03-23T02:23:03;43.65;;;27.30;;
25207;SDS011;13153;52.316;21.166;2024-03-23T02:25:33;48.25;;;27.40;;
25207;SDS011;13153;52.316;21.166;2024-03-23T02:27:59;48.92;;;27.77;;
25207;SDS011;13153;52.316;21.166;2024-03-23T02:30:26;43.47;;;27.00;;
25207;SDS011;13153;52.316;21.166;2024-03-23T02:32:52;47.95;;;28.52;;
25207;SDS011;13153;52.316;21.166;2024-03-23T02:35:18;48.45;;;29.05;;
25207;SDS011;13153;52.316;21.166;2024-03-23T02:37:46;44.15;;;26.45;;
25207;SDS011;13153;52.316;21.166;2024-03-23T02:40:14;45.60;;;26.92;;
25207;SDS011;13153;52.316;21.166;2024-03-23T02:42:41;46.15;;;27.75;;
25207;SDS011;13153;52.316;21.166;2024-03-23T02:45:07;46.40;;;28.05;;
25207;SDS011;13153;52.316;21.166;2024-03-23T02:47:33;51.03;;;29.13;;
25207;SDS011;13153;52.316;21.166;2024-03-23T02:50:00;46.35;;;28.05;;
25207;SDS011;13153;52.316;21.166;2024-03-23T02:52:26;45.83;;;27.52;;
25207;SDS011;13153;52.316;21.166;2024-03-23T02:54:52;46.97;;;27.33;;
25207;SDS011;13153;52.316;21.166;2024-03-23T02:57:18;51.42;;;29.85;;
25207;SDS011;13153;52.316;21.166;2024-03-23T02:59:45;46.75;;;28.88;;
25207;SDS011;13153;52.316;21.166;2024-03-23T03:02:13;46.55;;;27.55;;
25207;SDS011;13153;52.316;21.166;2024-03-23T03:04:41;42.05;;;26.85;;
25207;SDS011;13153;52.316;21.166;2024-03-23T03:07:08;48.85;;;28.83;;
25207;SDS011;13153;52.316;21.166;2024-03-23T03:09:34;51.97;;;30.42;;
25207;SDS011;13153;52.316;21.166;2024-03-23T03:12:03;47.67;;;29.13;;
25207;SDS011;13153;52.316;21.166;2024-03-23T03:14:30;44.97;;;28.50;;
25207;SDS011;13153;52.316;21.166;2024-03-23T03:16:57;47.47;;;29.42;;
25207;SDS011;13153;52.316;21.166;2024-03-23T03:19:23;46.95;;;27.45;;
25207;SDS011;13153;52.316;21.166;2024-03-23T03:21:49;47.50;;;27.35;;
25207;SDS011;13153;52.316;21.166;2024-03-23T03:24:16;49.38;;;28.65;;
25207;SDS011;13153;52.316;21.166;2024-03-23T03:26:42;48.63;;;29.40;;
25207;SDS011;13153;52.316;21.166;2024-03-23T03:29:08;47.83;;;29.13;;
25207;SDS011;13153;52.316;21.166;2024-03-23T03:31:35;47.33;;;28.63;;
25207;SDS011;13153;52.316;21.166;2024-03-23T03:34:01;45.13;;;27.42;;
25207;SDS011;13153;52.316;21.166;2024-03-23T03:36:28;46.42;;;28.65;;
25207;SDS011;13153;52.316;21.166;2024-03-23T03:38:54;50.70;;;31.27;;
25207;SDS011;13153;52.316;21.166;2024-03-23T03:41:20;45.92;;;28.05;;
25207;SDS011;13153;52.316;21.166;2024-03-23T03:43:46;47.50;;;28.27;;
25207;SDS011;13153;52.316;21.166;2024-03-23T03:46:13;45.45;;;27.73;;
25207;SDS011;13153;52.316;21.166;2024-03-23T03:48:39;49.90;;;30.42;;
25207;SDS011;13153;52.316;21.166;2024-03-23T03:51:05;48.30;;;30.88;;
25207;SDS011;13153;52.316;21.166;2024-03-23T03:53:31;49.25;;;30.67;;
25207;SDS011;13153;52.316;21.166;2024-03-23T03:56:01;55.35;;;32.03;;
25207;SDS011;13153;52.316;21.166;2024-03-23T03:58:27;53.65;;;30.33;;
25207;SDS011;13153;52.316;21.166;2024-03-23T04:00:54;48.28;;;29.90;;
25207;SDS011;13153;52.316;21.166;2024-03-23T04:03:20;42.17;;;27.40;;
25207;SDS011;13153;52.316;21.166;2024-03-23T04:05:53;44.92;;;25.55;;
25207;SDS011;13153;52.316;21.166;2024-03-23T04:08:20;44.92;;;27.38;;
25207;SDS011;13153;52.316;21.166;2024-03-23T04:10:47;41.00;;;26.05;;
25207;SDS011;13153;52.316;21.166;2024-03-23T04:13:14;41.20;;;26.73;;
25207;SDS011;13153;52.316;21.166;2024-03-23T04:15:40;43.65;;;26.92;;
25207;SDS011;13153;52.316;21.166;2024-03-23T04:18:06;49.63;;;29.52;;
25207;SDS011;13153;52.316;21.166;2024-03-23T04:20:33;42.58;;;27.23;;
25207;SDS011;13153;52.316;21.166;2024-03-23T04:22:59;42.33;;;27.77;;
25207;SDS011;13153;52.316;21.166;2024-03-23T04:25:26;44.25;;;27.00;;
25207;SDS011;13153;52.316;21.166;2024-03-23T04:27:52;45.95;;;27.73;;
25207;SDS011;13153;52.316;21.166;2024-03-23T04:30:20;38.50;;;24.67;;
25207;SDS011;13153;52.316;21.166;2024-03-23T04:32:50;37.08;;;24.33;;
25207;SDS011;13153;52.316;21.166;2024-03-23T04:35:16;34.90;;;22.95;;
25207;SDS011;13153;52.316;21.166;2024-03-23T04:37:45;37.78;;;24.38;;
25207;SDS011;13153;52.316;21.166;2024-03-23T04:40:11;39.03;;;24.65;;
25207;SDS011;13153;52.316;21.166;2024-03-23T04:42:37;35.75;;;23.63;;
25207;SDS011;13153;52.316;21.166;2024-03-23T04:45:04;35.42;;;24.02;;
25207;SDS011;13153;52.316;21.166;2024-03-23T04:47:31;40.70;;;26.35;;
25207;SDS011;13153;52.316;21.166;2024-03-23T04:49:58;40.30;;;25.25;;
25207;SDS011;13153;52.316;21.166;2024-03-23T04:52:24;38.50;;;24.63;;
25207;SDS011;13153;52.316;21.166;2024-03-23T04:54:51;39.15;;;23.08;;
25207;SDS011;13153;52.316;21.166;2024-03-23T04:57:17;39.53;;;23.88;;
25207;SDS011;13153;52.316;21.166;2024-03-23T04:59:43;35.10;;;23.23;;
25207;SDS011;13153;52.316;21.166;2024-03-23T05:02:09;38.10;;;23.88;;
25207;SDS011;13153;52.316;21.166;2024-03-23T05:04:36;37.97;;;25.42;;
25207;SDS011;13153;52.316;21.166;2024-03-23T05:07:04;37.83;;;24.58;;
25207;SDS011;13153;52.316;21.166;2024-03-23T05:09:30;40.05;;;25.17;;
25207;SDS011;13153;52.316;21.166;2024-03-23T05:11:57;40.97;;;24.92;;
25207;SDS011;13153;52.316;21.166;2024-03-23T05:14:28;39.95;;;24.73;;
25207;SDS011;13153;52.316;21.166;2024-03-23T05:16:54;36.92;;;24.35;;
25207;SDS011;13153;52.316;21.166;2024-03-23T05:19:21;39.28;;;24.08;;
25207;SDS011;13153;52.316;21.166;2024-03-23T05:21:47;35.88;;;24.08;;
25207;SDS011;13153;52.316;21.166;2024-03-23T05:24:15;42.05;;;26.17;;
25207;SDS011;13153;52.316;21.166;2024-03-23T05:26:41;38.25;;;25.00;;
25207;SDS011;13153;52.316;21.166;2024-03-23T05:29:07;37.88;;;25.25;;
25207;SDS011;13153;52.316;21.166;2024-03-23T05:31:38;38.60;;;25.48;;
25207;SDS011;13153;52.316;21.166;2024-03-23T05:34:06;36.80;;;23.88;;
25207;SDS011;13153;52.316;21.166;2024-03-23T05:36:34;40.33;;;25.15;;
25207;SDS011;13153;52.316;21.166;2024-03-23T05:39:01;35.55;;;23.98;;
25207;SDS011;13153;52.316;21.166;2024-03-23T05:41:28;37.60;;;25.30;;
25207;SDS011;13153;52.316;21.166;2024-03-23T05:43:54;39.10;;;25.52;;
25207;SDS011;13153;52.316;21.166;2024-03-23T05:46:21;40.05;;;24.80;;
25207;SDS011;13153;52.316;21.166;2024-03-23T05:48:47;41.15;;;24.20;;
25207;SDS011;13153;52.316;21.166;2024-03-23T05:51:13;36.65;;;24.73;;
25207;SDS011;13153;52.316;21.166;2024-03-23T05:53:39;41.80;;;26.10;;
25207;SDS011;13153;52.316;21.166;2024-03-23T05:56:05;40.88;;;26.55;;
25207;SDS011;13153;52.316;21.166;2024-03-23T05:58:32;41.70;;;27.08;;
25207;SDS011;13153;52.316;21.166;2024-03-23T06:00:59;38.72;;;24.83;;
25207;SDS011;13153;52.316;21.166;2024-03-23T06:03:27;40.28;;;26.25;;
25207;SDS011;13153;52.316;21.166;2024-03-23T06:05:54;41.75;;;26.23;;
25207;SDS011;13153;52.316;21.166;2024-03-23T06:08:21;43.28;;;28.85;;
25207;SDS011;13153;52.316;21.166;2024-03-23T06:10:49;43.25;;;27.42;;
25207;SDS011;13153;52.316;21.166;2024-03-23T06:13:15;42.63;;;27.73;;
25207;SDS011;13153;52.316;21.166;2024-03-23T06:15:43;45.05;;;28.83;;
25207;SDS011;13153;52.316;21.166;2024-03-23T06:18:11;45.65;;;29.10;;
25207;SDS011;13153;52.316;21.166;2024-03-23T06:20:37;42.42;;;28.05;;
25207;SDS011;13153;52.316;21.166;2024-03-23T06:23:05;47.75;;;30.17;;
25207;SDS011;13153;52.316;21.166;2024-03-23T06:25:32;45.08;;;28.38;;
25207;SDS011;13153;52.316;21.166;2024-03-23T06:27:58;46.22;;;29.60;;
25207;SDS011;13153;52.316;21.166;2024-03-23T06:30:26;48.60;;;30.52;;
25207;SDS011;13153;52.316;21.166;2024-03-23T06:32:52;46.45;;;30.15;;
25207;SDS011;13153;52.316;21.166;2024-03-23T06:35:19;48.50;;;30.50;;
25207;SDS011;13153;52.316;21.166;2024-03-23T06:37:46;55.53;;;34.35;;
25207;SDS011;13153;52.316;21.166;2024-03-23T06:40:13;48.33;;;30.30;;
25207;SDS011;13153;52.316;21.166;2024-03-23T06:42:40;48.80;;;30.08;;
25207;SDS011;13153;52.316;21.166;2024-03-23T06:45:07;49.63;;;31.08;;
25207;SDS011;13153;52.316;21.166;2024-03-23T06:47:33;49.28;;;30.63;;
25207;SDS011;13153;52.316;21.166;2024-03-23T06:50:02;50.42;;;31.02;;
25207;SDS011;13153;52.316;21.166;2024-03-23T06:52:32;47.33;;;30.67;;
25207;SDS011;13153;52.316;21.166;2024-03-23T06:54:58;48.92;;;30.63;;
25207;SDS011;13153;52.316;21.166;2024-03-23T06:57:25;49.08;;;31.08;;
25207;SDS011;13153;52.316;21.166;2024-03-23T06:59:52;48.08;;;30.33;;
25207;SDS011;13153;52.316;21.166;2024-03-23T07:02:19;50.63;;;31.27;;
25207;SDS011;13153;52.316;21.166;2024-03-23T07:04:45;52.22;;;32.65;;
25207;SDS011;13153;52.316;21.166;2024-03-23T07:07:12;50.67;;;31.30;;
25207;SDS011;13153;52.316;21.166;2024-03-23T07:09:38;55.40;;;33.78;;
25207;SDS011;13153;52.316;21.166;2024-03-23T07:12:04;51.80;;;31.90;;
25207;SDS011;13153;52.316;21.166;2024-03-23T07:14:32;51.88;;;31.42;;
25207;SDS011;13153;52.316;21.166;2024-03-23T07:17:00;56.10;;;32.92;;
25207;SDS011;13153;52.316;21.166;2024-03-23T07:19:27;57.80;;;32.65;;
25207;SDS011;13153;52.316;21.166;2024-03-23T07:21:54;52.55;;;31.80;;
25207;SDS011;13153;52.316;21.166;2024-03-23T07:24:21;63.05;;;35.67;;
25207;SDS011;13153;52.316;21.166;2024-03-23T07:26:47;55.72;;;34.15;;
25207;SDS011;13153;52.316;21.166;2024-03-23T07:29:13;56.35;;;33.45;;
25207;SDS011;13153;52.316;21.166;2024-03-23T07:31:40;53.15;;;32.67;;
25207;SDS011;13153;52.316;21.166;2024-03-23T07:34:06;55.53;;;34.00;;
25207;SDS011;13153;52.316;21.166;2024-03-23T07:36:33;63.42;;;37.10;;
25207;SDS011;13153;52.316;21.166;2024-03-23T07:38:59;57.80;;;34.08;;
25207;SDS011;13153;52.316;21.166;2024-03-23T07:41:25;54.95;;;32.58;;
25207;SDS011;13153;52.316;21.166;2024-03-23T07:43:53;58.08;;;35.03;;
25207;SDS011;13153;52.316;21.166;2024-03-23T07:46:20;53.90;;;32.38;;
25207;SDS011;13153;52.316;21.166;2024-03-23T07:48:46;55.85;;;33.30;;
25207;SDS011;13153;52.316;21.166;2024-03-23T07:51:16;54.22;;;32.47;;
25207;SDS011;13153;52.316;21.166;2024-03-23T07:53:47;49.22;;;29.92;;
25207;SDS011;13153;52.316;21.166;2024-03-23T07:56:15;60.05;;;34.10;;
25207;SDS011;13153;52.316;21.166;2024-03-23T07:58:42;47.45;;;29.73;;
25207;SDS011;13153;52.316;21.166;2024-03-23T08:01:09;48.65;;;29.52;;
25207;SDS011;13153;52.316;21.166;2024-03-23T08:03:42;51.17;;;31.65;;
25207;SDS011;13153;52.316;21.166;2024-03-23T08:06:10;50.05;;;30.52;;
25207;SDS011;13153;52.316;21.166;2024-03-23T08:08:42;48.00;;;28.83;;
25207;SDS011;13153;52.316;21.166;2024-03-23T08:11:12;43.92;;;25.95;;
25207;SDS011;13153;52.316;21.166;2024-03-23T08:13:39;49.00;;;28.33;;
25207;SDS011;13153;52.316;21.166;2024-03-23T08:16:06;43.90;;;25.85;;
25207;SDS011;13153;52.316;21.166;2024-03-23T08:18:37;40.72;;;25.20;;
25207;SDS011;13153;52.316;21.166;2024-03-23T08:21:03;47.00;;;28.00;;
25207;SDS011;13153;52.316;21.166;2024-03-23T08:23:31;39.33;;;24.80;;
25207;SDS011;13153;52.316;21.166;2024-03-23T08:26:01;45.03;;;26.23;;
25207;SDS011;13153;52.316;21.166;2024-03-23T08:28:31;42.65;;;25.73;;
25207;SDS011;13153;52.316;21.166;2024-03-23T08:31:00;42.60;;;25.95;;
25207;SDS011;13153;52.316;21.166;2024-03-23T08:33:30;49.42;;;28.15;;
25207;SDS011;13153;52.316;21.166;2024-03-23T08:36:00;45.22;;;27.02;;
25207;SDS011;13153;52.316;21.166;2024-03-23T08:41:07;47.78;;;29.10;;
25207;SDS011;13153;52.316;21.166;2024-03-23T08:43:35;47.13;;;28.13;;
25207;SDS011;13153;52.316;21.166;2024-03-23T08:46:09;48.65;;;28.40;;
25207;SDS011;13153;52.316;21.166;2024-03-23T08:48:41;45.03;;;27.40;;
25207;SDS011;13153;52.316;21.166;2024-03-23T08:51:09;46.00;;;27.38;;
25207;SDS011;13153;52.316;21.166;2024-03-23T08:53:37;49.50;;;29.75;;
25207;SDS011;13153;52.316;21.166;2024-03-23T08:56:04;46.05;;;28.95;;
25207;SDS011;13153;52.316;21.166;2024-03-23T08:58:32;45.53;;;27.65;;
25207;SDS011;13153;52.316;21.166;2024-03-23T09:01:06;41.78;;;26.98;;
25207;SDS011;13153;52.316;21.166;2024-03-23T09:03:40;44.88;;;27.92;;
25207;SDS011;13153;52.316;21.166;2024-03-23T09:06:07;47.90;;;27.52;;
25207;SDS011;13153;52.316;21.166;2024-03-23T09:08:37;41.45;;;24.95;;
25207;SDS011;13153;52.316;21.166;2024-03-23T09:11:06;45.22;;;26.40;;
25207;SDS011;13153;52.316;21.166;2024-03-23T09:13:34;46.45;;;27.27;;
25207;SDS011;13153;52.316;21.166;2024-03-23T09:16:01;43.50;;;23.88;;
25207;SDS011;13153;52.316;21.166;2024-03-23T09:18:30;39.67;;;22.73;;
25207;SDS011;13153;52.316;21.166;2024-03-23T09:20:58;39.65;;;22.73;;
25207;SDS011;13153;52.316;21.166;2024-03-23T09:23:24;37.28;;;22.83;;
25207;SDS011;13153;52.316;21.166;2024-03-23T09:25:50;34.40;;;19.50;;
25207;SDS011;13153;52.316;21.166;2024-03-23T09:28:16;34.25;;;21.67;;
25207;SDS011;13153;52.316;21.166;2024-03-23T09:30:42;32.78;;;20.33;;
25207;SDS011;13153;52.316;21.166;2024-03-23T09:33:12;37.22;;;21.92;;
25207;SDS011;13153;52.316;21.166;2024-03-23T09:35:39;34.13;;;20.52;;
25207;SDS011;13153;52.316;21.166;2024-03-23T09:38:09;32.83;;;21.42;;
25207;SDS011;13153;52.316;21.166;2024-03-23T09:40:41;34.47;;;20.77;;
25207;SDS011;13153;52.316;21.166;2024-03-23T09:43:08;31.65;;;20.77;;
25207;SDS011;13153;52.316;21.166;2024-03-23T09:45:36;29.42;;;18.70;;
25207;SDS011;13153;52.316;21.166;2024-03-23T09:48:06;31.13;;;19.80;;
25207;SDS011;13153;52.316;21.166;2024-03-23T09:50:36;33.03;;;20.25;;
25207;SDS011;13153;52.316;21.166;2024-03-23T09:53:09;31.25;;;19.50;;
25207;SDS011;13153;52.316;21.166;2024-03-23T09:55:39;35.67;;;19.27;;
25207;SDS011;13153;52.316;21.166;2024-03-23T09:58:07;34.40;;;18.70;;
25207;SDS011;13153;52.316;21.166;2024-03-23T10:00:37;32.25;;;18.88;;
25207;SDS011;13153;52.316;21.166;2024-03-23T10:03:03;28.85;;;18.60;;
25207;SDS011;13153;52.316;21.166;2024-03-23T10:05:31;30.40;;;18.63;;
25207;SDS011;13153;52.316;21.166;2024-03-23T10:08:21;28.83;;;18.15;;
25207;SDS011;13153;52.316;21.166;2024-03-23T10:10:46;30.55;;;18.90;;
25207;SDS011;13153;52.316;21.166;2024-03-23T10:13:25;28.13;;;17.35;;
25207;SDS011;13153;52.316;21.166;2024-03-23T10:15:57;30.88;;;17.95;;
25207;SDS011;13153;52.316;21.166;2024-03-23T10:18:24;26.38;;;16.80;;
25207;SDS011;13153;52.316;21.166;2024-03-23T10:21:13;34.47;;;16.60;;
25207;SDS011;13153;52.316;21.166;2024-03-23T10:23:39;25.05;;;15.80;;
25207;SDS011;13153;52.316;21.166;2024-03-23T10:28:50;24.70;;;15.15;;
25207;SDS011;13153;52.316;21.166;2024-03-23T10:31:33;25.33;;;14.73;;
25207;SDS011;13153;52.316;21.166;2024-03-23T10:34:03;21.55;;;14.25;;
25207;SDS011;13153;52.316;21.166;2024-03-23T10:36:29;21.73;;;14.40;;
25207;SDS011;13153;52.316;21.166;2024-03-23T10:38:56;25.05;;;14.57;;
25207;SDS011;13153;52.316;21.166;2024-03-23T10:41:26;25.90;;;14.10;;
25207;SDS011;13153;52.316;21.166;2024-03-23T10:43:57;38.67;;;14.27;;
25207;SDS011;13153;52.316;21.166;2024-03-23T10:46:25;20.60;;;13.02;;
25207;SDS011;13153;52.316;21.166;2024-03-23T10:48:51;22.38;;;13.57;;
25207;SDS011;13153;52.316;21.166;2024-03-23T10:51:17;22.10;;;13.43;;
25207;SDS011;13153;52.316;21.166;2024-03-23T10:53:44;24.02;;;13.73;;
25207;SDS011;13153;52.316;21.166;2024-03-23T10:56:12;21.70;;;12.55;;
25207;SDS011;13153;52.316;21.166;2024-03-23T10:58:44;21.67;;;13.98;;
25207;SDS011;13153;52.316;21.166;2024-03-23T11:01:14;22.90;;;14.43;;
25207;SDS011;13153;52.316;21.166;2024-03-23T11:03:47;20.90;;;13.23;;
25207;SDS011;13153;52.316;21.166;2024-03-23T11:09:02;22.42;;;12.55;;
25207;SDS011;13153;52.316;21.166;2024-03-23T11:11:28;20.80;;;12.80;;
25207;SDS011;13153;52.316;21.166;2024-03-23T11:13:57;22.73;;;13.70;;
25207;SDS011;13153;52.316;21.166;2024-03-23T11:16:28;20.23;;;12.60;;
25207;SDS011;13153;52.316;21.166;2024-03-23T11:22:02;20.38;;;11.40;;
25207;SDS011;13153;52.316;21.166;2024-03-23T11:24:33;17.33;;;10.65;;
25207;SDS011;13153;52.316;21.166;2024-03-23T11:26:59;17.25;;;11.75;;
25207;SDS011;13153;52.316;21.166;2024-03-23T11:29:28;17.45;;;11.50;;
25207;SDS011;13153;52.316;21.166;2024-03-23T11:31:55;16.92;;;10.43;;
25207;SDS011;13153;52.316;21.166;2024-03-23T11:34:21;16.75;;;11.02;;
25207;SDS011;13153;52.316;21.166;2024-03-23T11:36:47;15.18;;;10.45;;
25207;SDS011;13153;52.316;21.166;2024-03-23T11:39:16;17.55;;;10.70;;
25207;SDS011;13153;52.316;21.166;2024-03-23T11:41:47;19.80;;;11.25;;
25207;SDS011;13153;52.316;21.166;2024-03-23T11:58:21;18.13;;;10.60;;
25207;SDS011;13153;52.316;21.166;2024-03-23T12:01:10;16.17;;;9.77;;
25207;SDS011;13153;52.316;21.166;2024-03-23T12:03:35;19.02;;;10.93;;
25207;SDS011;13153;52.316;21.166;2024-03-23T12:06:02;15.30;;;9.73;;
25207;SDS011;13153;52.316;21.166;2024-03-23T12:08:33;15.30;;;9.75;;
25207;SDS011;13153;52.316;21.166;2024-03-23T12:11:15;15.38;;;9.38;;
25207;SDS011;13153;52.316;21.166;2024-03-23T12:13:43;24.65;;;12.57;;
25207;SDS011;13153;52.316;21.166;2024-03-23T12:16:16;14.48;;;9.90;;
25207;SDS011;13153;52.316;21.166;2024-03-23T12:18:45;14.98;;;9.38;;
25207;SDS011;13153;52.316;21.166;2024-03-23T12:21:14;13.77;;;9.52;;
25207;SDS011;13153;52.316;21.166;2024-03-23T12:23:41;15.85;;;8.82;;
25207;SDS011;13153;52.316;21.166;2024-03-23T12:26:09;15.07;;;9.30;;
25207;SDS011;13153;52.316;21.166;2024-03-23T12:28:37;13.88;;;8.88;;
25207;SDS011;13153;52.316;21.166;2024-03-23T12:31:03;14.60;;;8.60;;
25207;SDS011;13153;52.316;21.166;2024-03-23T12:33:29;16.27;;;8.50;;
25207;SDS011;13153;52.316;21.166;2024-03-23T12:35:55;16.52;;;9.63;;
25207;SDS011;13153;52.316;21.166;2024-03-23T12:38:21;13.80;;;8.85;;
25207;SDS011;13153;52.316;21.166;2024-03-23T12:40:47;11.40;;;7.40;;
25207;SDS011;13153;52.316;21.166;2024-03-23T12:43:14;13.43;;;8.02;;
25207;SDS011;13153;52.316;21.166;2024-03-23T12:45:40;11.07;;;7.78;;
25207;SDS011;13153;52.316;21.166;2024-03-23T12:48:06;13.23;;;7.30;;
25207;SDS011;13153;52.316;21.166;2024-03-23T12:50:32;10.75;;;6.85;;
25207;SDS011;13153;52.316;21.166;2024-03-23T12:52:58;11.32;;;6.93;;
25207;SDS011;13153;52.316;21.166;2024-03-23T12:55:24;13.65;;;7.20;;
25207;SDS011;13153;52.316;21.166;2024-03-23T12:57:49;10.50;;;6.90;;
25207;SDS011;13153;52.316;21.166;2024-03-23T13:00:15;12.30;;;7.60;;
25207;SDS011;13153;52.316;21.166;2024-03-23T13:02:42;12.98;;;7.28;;
25207;SDS011;13153;52.316;21.166;2024-03-23T13:05:08;10.63;;;6.78;;
25207;SDS011;13153;52.316;21.166;2024-03-23T13:07:34;10.02;;;6.53;;
25207;SDS011;13153;52.316;21.166;2024-03-23T13:10:00;11.57;;;7.20;;
25207;SDS011;13153;52.316;21.166;2024-03-23T13:12:27;9.75;;;6.85;;
25207;SDS011;13153;52.316;21.166;2024-03-23T13:14:53;13.07;;;8.00;;
25207;SDS011;13153;52.316;21.166;2024-03-23T13:17:18;12.32;;;7.22;;
25207;SDS011;13153;52.316;21.166;2024-03-23T13:19:44;46.08;;;33.58;;
25207;SDS011;13153;52.316;21.166;2024-03-23T13:22:10;141.65;;;103.72;;
25207;SDS011;13153;52.316;21.166;2024-03-23T13:24:36;85.40;;;63.10;;
25207;SDS011;13153;52.316;21.166;2024-03-23T13:27:03;50.05;;;33.13;;
25207;SDS011;13153;52.316;21.166;2024-03-23T13:29:32;65.72;;;47.65;;
25207;SDS011;13153;52.316;21.166;2024-03-23T13:32:02;13.15;;;8.80;;
25207;SDS011;13153;52.316;21.166;2024-03-23T13:34:29;11.75;;;7.65;;
25207;SDS011;13153;52.316;21.166;2024-03-23T13:36:54;13.23;;;7.28;;
25207;SDS011;13153;52.316;21.166;2024-03-23T13:39:24;15.45;;;7.72;;
25207;SDS011;13153;52.316;21.166;2024-03-23T13:41:52;13.13;;;7.78;;
25207;SDS011;13153;52.316;21.166;2024-03-23T13:44:18;12.68;;;7.50;;
25207;SDS011;13153;52.316;21.166;2024-03-23T13:46:44;14.20;;;8.05;;
25207;SDS011;13153;52.316;21.166;2024-03-23T13:49:14;11.90;;;7.82;;
25207;SDS011;13153;52.316;21.166;2024-03-23T13:51:59;16.55;;;10.05;;
25207;SDS011;13153;52.316;21.166;2024-03-23T13:54:25;15.88;;;10.93;;
25207;SDS011;13153;52.316;21.166;2024-03-23T13:56:52;19.95;;;11.05;;
25207;SDS011;13153;52.316;21.166;2024-03-23T13:59:20;17.20;;;10.60;;
25207;SDS011;13153;52.316;21.166;2024-03-23T14:01:48;16.77;;;10.50;;
25207;SDS011;13153;52.316;21.166;2024-03-23T14:04:14;14.95;;;9.70;;
25207;SDS011;13153;52.316;21.166;2024-03-23T14:06:44;16.52;;;9.90;;
25207;SDS011;13153;52.316;21.166;2024-03-23T14:09:11;18.17;;;8.98;;
25207;SDS011;13153;52.316;21.166;2024-03-23T14:14:11;15.27;;;8.93;;
25207;SDS011;13153;52.316;21.166;2024-03-23T14:16:37;17.45;;;10.77;;
25207;SDS011;13153;52.316;21.166;2024-03-23T14:19:03;14.05;;;9.63;;
25207;SDS011;13153;52.316;21.166;2024-03-23T14:21:30;16.60;;;8.23;;
25207;SDS011;13153;52.316;21.166;2024-03-23T14:23:56;15.52;;;7.65;;
25207;SDS011;13153;52.316;21.166;2024-03-23T14:26:22;9.30;;;6.78;;
25207;SDS011;13153;52.316;21.166;2024-03-23T14:28:48;11.48;;;7.65;;
25207;SDS011;13153;52.316;21.166;2024-03-23T14:31:15;12.80;;;7.90;;
25207;SDS011;13153;52.316;21.166;2024-03-23T14:33:41;24.20;;;15.25;;
25207;SDS011;13153;52.316;21.166;2024-03-23T14:36:11;20.45;;;13.32;;
25207;SDS011;13153;52.316;21.166;2024-03-23T14:38:47;20.20;;;10.60;;
25207;SDS011;13153;52.316;21.166;2024-03-23T14:41:14;17.42;;;9.40;;
25207;SDS011;13153;52.316;21.166;2024-03-23T14:43:40;14.80;;;8.75;;
25207;SDS011;13153;52.316;21.166;2024-03-23T14:46:14;13.80;;;8.73;;
25207;SDS011;13153;52.316;21.166;2024-03-23T14:48:42;15.55;;;8.55;;
25207;SDS011;13153;52.316;21.166;2024-03-23T14:51:09;15.85;;;9.40;;
25207;SDS011;13153;52.316;21.166;2024-03-23T14:53:40;14.18;;;8.30;;
25207;SDS011;13153;52.316;21.166;2024-03-23T14:56:10;13.68;;;9.07;;
25207;SDS011;13153;52.316;21.166;2024-03-23T14:58:38;12.60;;;8.10;;
25207;SDS011;13153;52.316;21.166;2024-03-23T15:01:04;12.93;;;7.32;;
25207;SDS011;13153;52.316;21.166;2024-03-23T15:03:35;12.07;;;7.22;;
25207;SDS011;13153;52.316;21.166;2024-03-23T15:06:04;11.73;;;6.78;;
25207;SDS011;13153;52.316;21.166;2024-03-23T15:08:30;10.98;;;7.97;;
25207;SDS011;13153;52.316;21.166;2024-03-23T15:10:59;13.98;;;8.82;;
25207;SDS011;13153;52.316;21.166;2024-03-23T15:13:25;28.73;;;16.55;;
25207;SDS011;13153;52.316;21.166;2024-03-23T15:15:51;21.35;;;13.50;;
25207;SDS011;13153;52.316;21.166;2024-03-23T15:18:17;22.92;;;13.05;;
25207;SDS011;13153;52.316;21.166;2024-03-23T15:20:57;19.67;;;12.68;;
25207;SDS011;13153;52.316;21.166;2024-03-23T15:23:27;24.70;;;13.03;;
25207;SDS011;13153;52.316;21.166;2024-03-23T15:25:57;23.30;;;12.43;;
25207;SDS011;13153;52.316;21.166;2024-03-23T15:28:28;27.23;;;17.63;;
25207;SDS011;13153;52.316;21.166;2024-03-23T15:31:27;24.55;;;15.65;;
25207;SDS011;13153;52.316;21.166;2024-03-23T15:33:54;36.65;;;17.27;;
25207;SDS011;13153;52.316;21.166;2024-03-23T15:36:19;24.25;;;14.73;;